Time;durP1;ratioP1;P1;durP2;ratioP2;P2;SDS_P1;SDS_P2;PMS_P1;PMS_P2;Temp;Humidity;BMP_temperature;BMP_pressure;BME280_temperature;BME280_humidity;BME280_pressure;Samples;Min_cycle;Max_cycle;Signal;HPM_P1;HPM_P2
2024/04/13 00:01:19;;;;;;;7.80;7.00;;;11.60;88.60;;;;;;5494651;26;20533;-44
2024/04/13 00:03:48;;;;;;;8.03;6.20;;;11.50;99.90;;;;;;5493019;26;20635;-43
2024/04/13 00:06:13;;;;;;;11.10;6.30;;;11.50;99.90;;;;;;5490988;26;20217;-42
2024/04/13 00:08:42;;;;;;;7.70;6.90;;;11.50;99.90;;;;;;5488264;26;20536;-43
2024/04/13 00:11:08;;;;;;;7.60;6.80;;;11.50;1.00;;;;;;5490447;26;20293;-42
2024/04/13 00:13:37;;;;;;;8.90;7.40;;;11.40;1.00;;;;;;5489282;26;20895;-43
2024/04/13 00:16:03;;;;;;;7.13;6.43;;;11.40;1.00;;;;;;5490040;26;20232;-44
2024/04/13 00:18:33;;;;;;;7.27;6.53;;;11.30;1.00;;;;;;5490435;26;20442;-42
2024/04/13 00:21:02;;;;;;;7.40;6.30;;;11.30;1.00;;;;;;5489317;26;20430;-42
2024/04/13 00:23:28;;;;;;;9.07;6.47;;;11.30;1.00;;;;;;5489699;26;20450;-43
2024/04/13 00:25:56;;;;;;;5.50;5.00;;;11.20;1.00;;;;;;5457706;26;20449;-41
2024/04/13 00:28:22;;;;;;;6.33;5.73;;;11.10;1.00;;;;;;5491155;26;20292;-44
2024/04/13 00:30:47;;;;;;;6.10;5.50;;;11.10;6.30;;;;;;5459016;26;20502;-43
2024/04/13 00:33:13;;;;;;;6.63;5.37;;;11.00;47.60;;;;;;5491641;26;20252;-43
2024/04/13 00:35:39;;;;;;;6.70;5.43;;;11.00;54.90;;;;;;5490734;26;20225;-42
2024/04/13 00:38:05;;;;;;;7.43;5.80;;;11.00;63.60;;;;;;5492316;26;20487;-44
2024/04/13 00:40:30;;;;;;;9.40;6.30;;;11.00;99.90;;;;;;5491538;26;20454;-41
2024/04/13 00:43:10;;;;;;;6.57;5.97;;;11.00;99.90;;;;;;5493711;26;20519;-42
2024/04/13 00:45:45;;;;;;;6.93;5.87;;;10.90;99.90;;;;;;5491991;26;20353;-43
2024/04/13 00:48:24;;;;;;;6.90;6.00;;;10.90;99.90;;;;;;5492818;26;20542;-42
2024/04/13 00:50:58;;;;;;;6.47;5.70;;;10.90;99.90;;;;;;5458939;26;20487;-42
2024/04/13 00:53:24;;;;;;;6.23;5.63;;;10.80;99.90;;;;;;5460319;26;20704;-42
2024/04/13 00:55:53;;;;;;;6.60;5.90;;;10.80;99.90;;;;;;5487748;26;20510;-45
2024/04/13 00:58:26;;;;;;;7.10;5.47;;;10.80;99.90;;;;;;5490266;26;20532;-42
2024/04/13 01:00:52;;;;;;;7.40;5.50;;;10.80;99.90;;;;;;5459098;26;20533;-43
2024/04/13 01:03:19;;;;;;;6.53;6.03;;;10.80;99.90;;;;;;5492758;26;21038;-43
2024/04/13 01:05:48;;;;;;;6.57;5.97;;;10.70;99.90;;;;;;5490264;26;20519;-42
2024/04/13 01:08:14;;;;;;;5.77;5.27;;;10.70;99.90;;;;;;5490389;26;20454;-45
2024/04/13 01:10:41;;;;;;;7.00;5.83;;;10.70;99.90;;;;;;5492394;26;20947;-43
2024/04/13 01:13:08;;;;;;;6.27;5.63;;;10.70;99.90;;;;;;5456959;26;20593;-41
2024/04/13 01:15:36;;;;;;;7.70;5.93;;;10.70;99.90;;;;;;5487269;26;20430;-42
2024/04/13 01:18:05;;;;;;;7.50;6.80;;;10.60;99.90;;;;;;5458251;26;20504;-43
2024/04/13 01:20:33;;;;;;;7.30;5.63;;;10.60;99.90;;;;;;5491983;26;20457;-42
2024/04/13 01:23:02;;;;;;;6.50;5.77;;;10.60;99.90;;;;;;5460992;26;20522;-45
2024/04/13 01:25:28;;;;;;;7.90;5.87;;;10.60;99.90;;;;;;5456526;26;20450;-44
2024/04/13 01:27:56;;;;;;;5.67;5.17;;;10.60;1.00;;;;;;5455692;26;20944;-42
2024/04/13 01:30:25;;;;;;;7.40;5.87;;;10.60;99.90;;;;;;5490483;26;20502;-42
2024/04/13 01:32:53;;;;;;;6.40;5.83;;;10.60;99.90;;;;;;5492379;26;20517;-42
2024/04/13 01:35:19;;;;;;;9.30;6.60;;;10.60;99.90;;;;;;5491513;26;20454;-44
2024/04/13 01:37:45;;;;;;;7.10;6.50;;;10.50;1.00;;;;;;5491976;26;20454;-45
2024/04/13 01:40:11;;;;;;;7.60;6.60;;;10.50;99.90;;;;;;5490597;26;20442;-44
2024/04/13 01:42:39;;;;;;;6.50;5.90;;;10.50;99.90;;;;;;5490828;26;20446;-42
2024/04/13 01:45:05;;;;;;;7.70;6.10;;;10.50;99.90;;;;;;5488523;26;20910;-41
2024/04/13 01:47:31;;;;;;;8.70;7.30;;;10.50;99.90;;;;;;5490226;26;20627;-46
2024/04/13 01:49:56;;;;;;;7.33;6.00;;;10.40;1.00;;;;;;5490919;26;20508;-43
2024/04/13 01:52:22;;;;;;;7.60;6.87;;;10.40;99.90;;;;;;5489582;26;20229;-42
2024/04/13 01:54:48;;;;;;;7.13;6.30;;;10.40;99.90;;;;;;5490864;26;20228;-45
2024/04/13 01:57:14;;;;;;;6.70;5.97;;;10.40;1.00;;;;;;5490885;26;20282;-43
2024/04/13 01:59:41;;;;;;;9.60;6.73;;;10.40;1.00;;;;;;5491110;26;20438;-42
2024/04/13 02:02:07;;;;;;;6.57;5.90;;;10.40;1.00;;;;;;5490736;26;20252;-45
2024/04/13 02:04:32;;;;;;;6.30;5.70;;;10.30;1.00;;;;;;5491382;26;20454;-42
2024/04/13 02:06:58;;;;;;;8.30;6.83;;;10.30;1.00;;;;;;5457749;26;20888;-43
2024/04/13 02:09:23;;;;;;;11.53;6.97;;;10.30;1.00;;;;;;5490487;26;20309;-42
2024/04/13 02:11:49;;;;;;;8.03;7.30;;;10.30;1.00;;;;;;5458887;26;20489;-42
2024/04/13 02:14:14;;;;;;;6.97;6.27;;;10.30;1.00;;;;;;5497605;25;20640;-43
2024/04/13 02:16:40;;;;;;;8.37;7.40;;;10.30;1.00;;;;;;5519034;26;20278;-42
2024/04/13 02:19:06;;;;;;;8.00;7.20;;;10.30;1.00;;;;;;5528758;26;20232;-41
2024/04/13 02:21:31;;;;;;;6.50;5.90;;;10.20;1.00;;;;;;5528838;26;20224;-42
2024/04/13 02:23:57;;;;;;;7.40;6.70;;;10.20;1.00;;;;;;5526663;26;20211;-43
2024/04/13 02:26:22;;;;;;;9.20;8.30;;;10.20;1.00;;;;;;5523730;26;20223;-43
2024/04/13 02:28:48;;;;;;;7.93;7.13;;;10.20;1.00;;;;;;5524208;26;20608;-42
2024/04/13 02:31:14;;;;;;;10.17;6.90;;;10.20;1.00;;;;;;5525956;26;20236;-45
2024/04/13 02:33:39;;;;;;;8.10;6.70;;;10.10;1.00;;;;;;5491427;26;20236;-45
2024/04/13 02:36:05;;;;;;;6.80;6.20;;;10.10;1.00;;;;;;5523123;26;20212;-42
2024/04/13 02:38:32;;;;;;;7.10;6.30;;;10.10;1.00;;;;;;5525259;26;20251;-44
2024/04/13 02:40:59;;;;;;;8.60;6.13;;;10.10;1.00;;;;;;5528462;26;20503;-43
2024/04/13 02:43:26;;;;;;;7.60;6.30;;;10.10;1.00;;;;;;5530475;26;20452;-41
2024/04/13 02:45:51;;;;;;;6.70;6.03;;;10.10;1.00;;;;;;5528475;26;20690;-42
2024/04/13 02:48:17;;;;;;;8.67;6.30;;;10.10;1.00;;;;;;5528814;26;20448;-45
2024/04/13 02:50:44;;;;;;;5.80;5.30;;;10.00;1.00;;;;;;5529468;26;20446;-43
2024/04/13 02:53:09;;;;;;;6.83;6.20;;;10.00;1.00;;;;;;5530120;26;20466;-45
2024/04/13 02:55:35;;;;;;;7.27;6.57;;;10.00;1.00;;;;;;5527017;26;20508;-43
2024/04/13 02:58:35;;;;;;;7.70;5.80;;;10.00;1.00;;;;;;5530130;26;20219;-44
2024/04/13 03:01:02;;;;;;;6.50;6.00;;;9.90;1.00;;;;;;5527155;25;20363;-41
2024/04/13 03:03:27;;;;;;;6.60;6.10;;;9.90;1.00;;;;;;5531419;25;20567;-43
2024/04/13 03:06:16;;;;;;;7.33;6.50;;;9.90;1.00;;;;;;5531947;25;20957;-45
2024/04/13 03:08:42;;;;;;;7.80;6.20;;;9.90;1.00;;;;;;5531664;25;20307;-43
2024/04/13 03:11:11;;;;;;;7.27;6.27;;;9.90;1.00;;;;;;5531124;25;20437;-47
2024/04/13 03:13:37;;;;;;;7.60;6.17;;;9.90;1.00;;;;;;5531725;25;20257;-43
2024/04/13 03:16:08;;;;;;;6.47;5.80;;;9.90;1.00;;;;;;5530784;25;20508;-41
2024/04/13 03:18:38;;;;;;;9.30;6.60;;;9.90;1.00;;;;;;5529762;25;20464;-43
2024/04/13 03:21:05;;;;;;;8.10;6.23;;;9.90;1.00;;;;;;5529114;25;20535;-42
2024/04/13 03:23:32;;;;;;;9.33;6.70;;;9.90;1.00;;;;;;5465937;26;20448;-41
2024/04/13 03:25:58;;;;;;;7.27;5.73;;;9.90;1.00;;;;;;5526730;25;20458;-42
2024/04/13 03:28:26;;;;;;;10.40;6.57;;;9.90;1.00;;;;;;5495160;25;20520;-42
2024/04/13 03:30:51;;;;;;;6.97;6.37;;;9.90;1.00;;;;;;5528549;25;20549;-42
2024/04/13 03:33:17;;;;;;;6.90;6.10;;;9.90;1.00;;;;;;5530062;26;20480;-44
2024/04/13 03:35:44;;;;;;;6.50;5.87;;;9.90;1.00;;;;;;5528896;25;20232;-43
2024/04/13 03:38:10;;;;;;;7.73;6.13;;;9.90;1.00;;;;;;5528080;25;20284;-47
2024/04/13 03:40:36;;;;;;;6.87;6.27;;;9.90;1.00;;;;;;5529865;25;20433;-42
2024/04/13 03:43:02;;;;;;;7.60;6.20;;;9.90;1.00;;;;;;5530449;25;20568;-42
2024/04/13 03:45:28;;;;;;;6.50;5.90;;;9.90;1.00;;;;;;5524507;25;20531;-42
2024/04/13 03:47:54;;;;;;;7.00;6.30;;;9.80;1.00;;;;;;5525421;25;20516;-43
2024/04/13 03:50:19;;;;;;;7.70;6.90;;;9.80;1.00;;;;;;5493790;26;20249;-43
2024/04/13 03:52:45;;;;;;;6.63;5.93;;;9.80;1.00;;;;;;5525618;25;20207;-43
2024/04/13 03:55:10;;;;;;;6.57;5.90;;;9.80;1.00;;;;;;5527240;25;20282;-41
2024/04/13 03:57:36;;;;;;;6.00;5.40;;;9.80;1.00;;;;;;5528791;25;20610;-44
2024/04/13 04:00:06;;;;;;;8.80;6.43;;;9.70;1.00;;;;;;5529754;25;20243;-45
2024/04/13 04:02:35;;;;;;;6.57;5.97;;;9.70;1.00;;;;;;5498322;26;20224;-43
2024/04/13 04:05:01;;;;;;;7.27;6.57;;;9.60;1.00;;;;;;5526808;25;20436;-43
2024/04/13 04:07:27;;;;;;;6.40;5.80;;;9.60;1.00;;;;;;5527074;25;20667;-42
2024/04/13 04:09:53;;;;;;;7.43;6.73;;;9.60;1.00;;;;;;5530192;25;20862;-41
2024/04/13 04:12:18;;;;;;;8.03;6.03;;;9.60;1.00;;;;;;5530386;25;20783;-43
2024/04/13 04:14:44;;;;;;;8.87;7.00;;;9.60;1.00;;;;;;5528323;25;20324;-43
2024/04/13 04:17:09;;;;;;;7.83;5.87;;;9.50;1.00;;;;;;5524869;25;20223;-41
2024/04/13 04:19:35;;;;;;;7.30;6.60;;;9.50;1.00;;;;;;5524846;25;20678;-42
2024/04/13 04:22:01;;;;;;;8.00;6.40;;;9.50;1.00;;;;;;5527903;25;20227;-45
2024/04/13 04:24:26;;;;;;;10.37;5.67;;;9.50;1.00;;;;;;5527794;25;20316;-43
2024/04/13 04:26:52;;;;;;;6.73;6.03;;;9.40;18.40;;;;;;5522799;26;20554;-44
2024/04/13 04:29:17;;;;;;;6.07;5.53;;;9.40;26.40;;;;;;5526962;25;20223;-42
2024/04/13 04:31:43;;;;;;;7.00;5.90;;;9.40;25.60;;;;;;5526791;25;20515;-41
2024/04/13 04:34:09;;;;;;;7.47;5.90;;;9.40;39.00;;;;;;5525098;25;20356;-43
2024/04/13 04:36:34;;;;;;;6.57;5.87;;;9.40;37.70;;;;;;5524233;25;20286;-42
2024/04/13 04:39:00;;;;;;;6.67;6.00;;;9.40;21.40;;;;;;5526624;25;20355;-42
2024/04/13 04:41:26;;;;;;;7.93;5.40;;;9.40;13.60;;;;;;5527104;25;20734;-41
2024/04/13 04:43:53;;;;;;;6.50;5.47;;;9.40;21.50;;;;;;5528923;25;20597;-41
2024/04/13 04:46:20;;;;;;;8.20;5.50;;;9.40;17.00;;;;;;5528660;25;20452;-44
2024/04/13 04:48:49;;;;;;;7.70;6.37;;;9.40;14.60;;;;;;5525309;25;20493;-42
2024/04/13 04:51:14;;;;;;;6.50;5.80;;;9.40;22.20;;;;;;5524324;26;20568;-43
2024/04/13 04:53:40;;;;;;;7.90;6.13;;;9.50;13.50;;;;;;5526931;25;20453;-41
2024/04/13 04:56:06;;;;;;;5.80;5.00;;;9.50;9.90;;;;;;5524187;25;20560;-42
2024/04/13 04:58:31;;;;;;;7.03;6.33;;;9.40;10.90;;;;;;5524107;25;20204;-43
2024/04/13 05:00:57;;;;;;;7.10;5.77;;;9.50;6.60;;;;;;5524665;25;20331;-42
2024/04/13 05:03:24;;;;;;;6.33;5.73;;;9.40;6.00;;;;;;5525444;25;20490;-42
2024/04/13 05:05:50;;;;;;;7.63;6.37;;;9.40;5.50;;;;;;5524679;25;20291;-41
2024/04/13 05:08:16;;;;;;;6.40;5.73;;;9.40;1.00;;;;;;5526173;25;20445;-42
2024/04/13 05:10:42;;;;;;;7.73;5.70;;;9.40;1.00;;;;;;5527297;26;20555;-42
2024/04/13 05:13:08;;;;;;;6.50;5.77;;;9.50;1.00;;;;;;5527139;25;20320;-43
2024/04/13 05:15:35;;;;;;;8.50;6.50;;;9.50;1.00;;;;;;5524632;25;20452;-42
2024/04/13 05:18:04;;;;;;;8.77;6.23;;;9.40;1.00;;;;;;5526904;25;20495;-43
2024/04/13 05:20:31;;;;;;;6.17;5.60;;;9.40;1.00;;;;;;5529064;25;20472;-42
2024/04/13 05:22:58;;;;;;;7.00;6.20;;;9.40;7.20;;;;;;5526850;25;20492;-42
2024/04/13 05:25:24;;;;;;;8.50;6.40;;;9.50;18.50;;;;;;5526738;25;20448;-42
2024/04/13 05:27:49;;;;;;;6.93;6.23;;;9.40;4.50;;;;;;5525978;25;20501;-44
2024/04/13 05:30:15;;;;;;;6.10;5.50;;;9.40;23.90;;;;;;5560849;25;20330;-41
2024/04/13 05:32:40;;;;;;;7.77;5.70;;;9.40;39.70;;;;;;5562524;25;20226;-42
2024/04/13 05:35:06;;;;;;;8.33;6.17;;;9.40;43.00;;;;;;5561038;25;20222;-41
2024/04/13 05:37:33;;;;;;;6.07;5.47;;;9.50;49.40;;;;;;5559390;25;20294;-45
2024/04/13 05:39:58;;;;;;;5.90;5.33;;;9.50;51.30;;;;;;5561140;25;20766;-41
2024/04/13 05:42:24;;;;;;;6.90;5.73;;;9.60;36.70;;;;;;5560859;25;20556;-44
2024/04/13 05:44:49;;;;;;;6.60;5.93;;;9.60;39.00;;;;;;5560867;25;20226;-44
2024/04/13 05:47:15;;;;;;;6.77;5.97;;;9.70;32.70;;;;;;5561908;25;20227;-42
2024/04/13 05:49:41;;;;;;;7.33;6.60;;;9.80;24.20;;;;;;5563269;25;20327;-42
2024/04/13 05:52:07;;;;;;;6.40;5.80;;;9.80;19.50;;;;;;5559536;25;20273;-43
2024/04/13 05:54:32;;;;;;;6.03;5.40;;;9.90;1.00;;;;;;5557766;25;20459;-42
2024/04/13 05:56:58;;;;;;;7.33;6.50;;;10.10;1.00;;;;;;5555688;25;20277;-43
2024/04/13 05:59:24;;;;;;;8.53;5.77;;;10.20;1.00;;;;;;5558000;25;20246;-45
2024/04/13 06:01:49;;;;;;;8.47;6.30;;;10.40;1.00;;;;;;5556873;25;20223;-44
2024/04/13 06:04:15;;;;;;;7.00;6.30;;;10.60;1.00;;;;;;5560169;25;20226;-44
2024/04/13 06:06:41;;;;;;;6.60;6.00;;;10.80;1.00;;;;;;5525205;25;20231;-44
2024/04/13 06:09:07;;;;;;;7.17;6.57;;;11.00;1.00;;;;;;5483565;26;20591;-44
2024/04/13 06:11:33;;;;;;;6.83;6.10;;;11.30;99.90;;;;;;5522303;25;20517;-43
2024/04/13 06:13:59;;;;;;;7.00;6.30;;;11.50;99.90;;;;;;5525154;25;20514;-43
2024/04/13 06:16:24;;;;;;;10.80;7.33;;;11.80;99.90;;;;;;5526891;25;20456;-44
2024/04/13 06:18:50;;;;;;;9.53;6.83;;;12.10;1.00;;;;;;5527666;25;20606;-44
2024/04/13 06:21:16;;;;;;;6.07;5.13;;;12.40;99.90;;;;;;5527753;25;20691;-44
2024/04/13 06:23:42;;;;;;;5.60;5.10;;;12.60;1.00;;;;;;5529336;25;20510;-44
2024/04/13 06:26:07;;;;;;;5.93;4.60;;;12.90;1.00;;;;;;5530918;25;20323;-45
2024/04/13 06:28:33;;;;;;;6.10;4.30;;;13.10;99.90;;;;;;5498680;26;20227;-45
2024/04/13 06:30:58;;;;;;;7.03;4.80;;;13.30;1.00;;;;;;5531491;25;20235;-46
2024/04/13 06:33:24;;;;;;;5.07;4.67;;;13.50;99.90;;;;;;5530335;25;20239;-43
2024/04/13 06:35:50;;;;;;;6.57;5.37;;;13.70;1.00;;;;;;5525358;25;20228;-43
2024/04/13 06:38:22;;;;;;;6.97;4.77;;;13.90;1.00;;;;;;5525208;25;20216;-45
2024/04/13 06:40:48;;;;;;;5.83;5.23;;;14.10;1.00;;;;;;5526038;25;20500;-45
2024/04/13 06:43:14;;;;;;;5.47;4.00;;;14.30;1.00;;;;;;5526221;25;20675;-44
2024/04/13 06:45:40;;;;;;;4.93;4.53;;;14.40;99.90;;;;;;5527563;25;20456;-45
2024/04/13 06:48:06;;;;;;;5.27;4.70;;;14.50;99.90;;;;;;5526178;25;20239;-46
2024/04/13 06:50:31;;;;;;;6.23;5.10;;;14.70;99.90;;;;;;5527574;25;20295;-47
2024/04/13 06:52:57;;;;;;;5.80;5.20;;;14.90;76.70;;;;;;5530534;25;20441;-43
2024/04/13 06:55:22;;;;;;;7.43;5.27;;;15.10;1.00;;;;;;5531094;25;20379;-43
2024/04/13 06:57:48;;;;;;;6.10;5.20;;;15.30;1.00;;;;;;5529258;25;20534;-45
2024/04/13 07:00:14;;;;;;;5.77;4.80;;;15.40;1.00;;;;;;5525003;25;20729;-47
2024/04/13 07:02:39;;;;;;;5.90;5.10;;;15.60;1.00;;;;;;5460367;26;20625;-45
2024/04/13 07:05:09;;;;;;;6.63;5.13;;;15.80;1.00;;;;;;5492614;26;20213;-47
2024/04/13 07:07:36;;;;;;;5.23;4.40;;;16.00;1.00;;;;;;5529833;25;20262;-44
2024/04/13 07:10:03;;;;;;;6.57;4.73;;;16.20;1.00;;;;;;5530638;25;20561;-45
2024/04/13 07:12:29;;;;;;;5.00;4.50;;;16.40;99.90;;;;;;5508684;25;20586;-43
2024/04/13 07:14:55;;;;;;;6.07;5.57;;;16.50;99.90;;;;;;5494091;26;20556;-45
2024/04/13 07:17:20;;;;;;;5.03;4.63;;;16.70;99.90;;;;;;5462541;26;20445;-46
2024/04/13 07:19:46;;;;;;;5.77;5.03;;;16.90;99.90;;;;;;5495427;26;20220;-46
2024/04/13 07:22:11;;;;;;;4.47;4.07;;;17.00;99.90;;;;;;5495348;26;20630;-46
2024/04/13 07:24:37;;;;;;;6.23;4.67;;;17.10;99.90;;;;;;5502180;26;20611;-43
2024/04/13 07:27:04;;;;;;;5.40;4.60;;;17.10;99.90;;;;;;5461392;26;20326;-43
2024/04/13 07:29:30;;;;;;;9.40;4.83;;;17.30;99.90;;;;;;5494898;26;20510;-43
2024/04/13 07:31:55;;;;;;;5.00;4.50;;;17.60;99.90;;;;;;5495509;26;20426;-44
2024/04/13 07:34:21;;;;;;;5.13;4.53;;;17.80;99.90;;;;;;5494545;26;20228;-45
2024/04/13 07:36:47;;;;;;;5.40;4.80;;;18.00;99.90;;;;;;5493309;26;20232;-46
2024/04/13 07:39:12;;;;;;;4.90;4.20;;;18.30;99.90;;;;;;5492364;26;20603;-44
2024/04/13 07:41:41;;;;;;;6.70;4.50;;;18.60;97.40;;;;;;5488459;26;20603;-43
2024/04/13 07:44:07;;;;;;;6.70;4.53;;;18.70;57.10;;;;;;5458028;26;20933;-43
2024/04/13 07:46:33;;;;;;;5.07;3.90;;;18.80;32.30;;;;;;5490591;26;20438;-44
2024/04/13 07:48:59;;;;;;;6.60;6.00;;;18.90;26.50;;;;;;5488721;26;20229;-43
2024/04/13 07:51:25;;;;;;;7.57;4.27;;;19.20;19.10;;;;;;5489533;26;20540;-44
2024/04/13 07:53:50;;;;;;;4.83;4.03;;;19.40;4.00;;;;;;5458184;26;20538;-45
2024/04/13 07:56:16;;;;;;;6.87;4.43;;;19.60;1.00;;;;;;5492450;26;20623;-43
2024/04/13 07:58:42;;;;;;;6.43;4.70;;;19.90;1.00;;;;;;5492295;26;20334;-45
2024/04/13 08:01:07;;;;;;;8.50;4.90;;;20.20;1.00;;;;;;5491360;26;20237;-45
2024/04/13 08:03:33;;;;;;;6.40;4.43;;;20.20;1.00;;;;;;5494274;26;20225;-43
2024/04/13 08:05:58;;;;;;;5.20;4.60;;;20.30;1.00;;;;;;5490457;26;20337;-45
2024/04/13 08:08:25;;;;;;;5.13;4.30;;;20.40;1.00;;;;;;5460360;26;20688;-47
2024/04/13 08:10:51;;;;;;;5.77;4.50;;;20.70;1.00;;;;;;5492337;26;20209;-45
2024/04/13 08:13:17;;;;;;;4.30;3.70;;;20.70;1.00;;;;;;5491836;26;20446;-43
2024/04/13 08:15:43;;;;;;;5.20;4.70;;;21.00;1.00;;;;;;5490298;26;20454;-47
2024/04/13 08:18:08;;;;;;;4.47;3.47;;;21.40;1.00;;;;;;5492348;26;20240;-45
2024/04/13 08:20:34;;;;;;;5.87;4.17;;;21.60;1.00;;;;;;5492619;26;20450;-44
2024/04/13 08:23:00;;;;;;;9.60;3.80;;;21.80;1.00;;;;;;5490856;26;20339;-45
2024/04/13 08:25:26;;;;;;;4.93;3.40;;;22.00;1.00;;;;;;5493315;26;20274;-45
2024/04/13 08:27:52;;;;;;;3.50;2.93;;;22.30;1.00;;;;;;5493787;26;20275;-43
2024/04/13 08:30:17;;;;;;;4.93;2.30;;;22.20;1.00;;;;;;5492224;26;20522;-45
2024/04/13 08:32:45;;;;;;;3.23;2.93;;;22.40;1.00;;;;;;5491811;26;20325;-43
2024/04/13 08:35:11;;;;;;;4.30;2.60;;;22.80;1.00;;;;;;5492728;26;20739;-43
2024/04/13 08:37:36;;;;;;;3.47;2.63;;;23.30;1.00;;;;;;5493470;26;20442;-44
2024/04/13 08:40:03;;;;;;;4.70;3.20;;;23.70;1.00;;;;;;5493312;26;20674;-44
2024/04/13 08:42:38;;;;;;;2.40;2.00;;;24.10;1.00;;;;;;5491645;26;20317;-47
2024/04/13 08:45:04;;;;;;;2.57;2.20;;;24.40;1.00;;;;;;5461447;26;20989;-45
2024/04/13 08:47:31;;;;;;;3.33;2.53;;;24.70;1.00;;;;;;5458462;26;20937;-47
2024/04/13 08:50:00;;;;;;;3.77;2.23;;;24.80;1.00;;;;;;5459091;26;20450;-44
2024/04/13 08:52:26;;;;;;;4.03;3.07;;;25.00;1.00;;;;;;5460583;26;20506;-47
2024/04/13 08:54:52;;;;;;;3.07;2.50;;;25.30;1.00;;;;;;5492250;26;20461;-44
2024/04/13 08:57:24;;;;;;;6.67;3.17;;;25.50;1.00;;;;;;5492369;26;20458;-44
2024/04/13 08:59:51;;;;;;;2.70;2.50;;;25.40;1.00;;;;;;5491324;26;20280;-43
2024/04/13 09:02:22;;;;;;;4.30;2.40;;;24.90;1.00;;;;;;5491556;26;20808;-46
2024/04/13 09:04:50;;;;;;;3.73;2.40;;;24.90;1.00;;;;;;5491807;26;20446;-45
2024/04/13 09:07:18;;;;;;;3.67;2.63;;;24.90;1.00;;;;;;5459314;26;20505;-45
2024/04/13 09:09:44;;;;;;;2.60;2.00;;;24.90;1.00;;;;;;5458456;26;20560;-45
2024/04/13 09:12:10;;;;;;;2.30;1.93;;;25.00;1.00;;;;;;5492258;26;20457;-45
2024/04/13 09:14:36;;;;;;;2.90;2.50;;;25.00;1.00;;;;;;5490553;26;20275;-47
2024/04/13 09:17:01;;;;;;;5.13;2.47;;;25.10;1.00;;;;;;5488280;26;20216;-46
2024/04/13 09:19:27;;;;;;;3.73;2.23;;;25.40;1.00;;;;;;5490828;26;20305;-44
2024/04/13 09:21:55;;;;;;;3.00;2.70;;;25.70;1.00;;;;;;5491672;26;20283;-44
2024/04/13 09:24:20;;;;;;;2.83;2.00;;;26.00;1.00;;;;;;5494250;26;20791;-47
2024/04/13 09:26:46;;;;;;;4.53;3.23;;;26.20;1.00;;;;;;5491264;26;20465;-44
2024/04/13 09:29:13;;;;;;;4.00;3.00;;;26.30;1.00;;;;;;5459602;26;20213;-44
2024/04/13 09:31:42;;;;;;;2.30;2.10;;;26.60;1.00;;;;;;5492850;26;20216;-48
2024/04/13 09:34:16;;;;;;;4.17;2.40;;;27.10;1.00;;;;;;5492930;26;20454;-44
2024/04/13 09:36:42;;;;;;;3.23;2.50;;;27.20;1.00;;;;;;5491329;26;20465;-42
2024/04/13 09:39:07;;;;;;;3.93;2.70;;;26.80;1.00;;;;;;5489628;26;20458;-43
2024/04/13 09:41:33;;;;;;;2.73;2.53;;;26.60;1.00;;;;;;5490329;26;20340;-44
2024/04/13 09:43:58;;;;;;;3.53;2.30;;;26.60;1.00;;;;;;5458829;26;20243;-42
2024/04/13 09:46:25;;;;;;;6.43;3.27;;;26.50;1.00;;;;;;5490794;26;20279;-44
2024/04/13 09:48:54;;;;;;;3.30;2.17;;;26.50;1.00;;;;;;5490432;26;20236;-45
2024/04/13 09:51:20;;;;;;;3.70;2.83;;;26.40;1.00;;;;;;5492295;26;20493;-44
2024/04/13 09:53:46;;;;;;;2.97;2.43;;;26.40;1.00;;;;;;5492951;26;20678;-46
2024/04/13 09:56:11;;;;;;;3.33;2.40;;;26.80;1.00;;;;;;5460329;26;20220;-44
2024/04/13 09:58:37;;;;;;;4.30;2.50;;;27.30;1.00;;;;;;5494196;26;20267;-46
2024/04/13 10:01:04;;;;;;;3.77;2.23;;;27.50;1.00;;;;;;5492448;26;20287;-48
2024/04/13 10:03:30;;;;;;;4.00;2.60;;;27.50;1.00;;;;;;5493931;26;20271;-47
2024/04/13 10:05:56;;;;;;;3.83;3.00;;;27.30;1.00;;;;;;5461655;26;20454;-48
2024/04/13 10:08:23;;;;;;;4.00;2.63;;;26.90;1.00;;;;;;5492654;26;20325;-48
2024/04/13 10:10:50;;;;;;;3.30;2.80;;;27.40;1.00;;;;;;5431360;26;20524;-48
2024/04/13 10:13:29;;;;;;;3.40;2.83;;;27.60;1.00;;;;;;5462117;26;20527;-47
2024/04/13 10:15:58;;;;;;;4.53;3.27;;;27.20;1.00;;;;;;5461337;26;20465;-51
2024/04/13 10:18:24;;;;;;;5.47;2.90;;;27.00;1.00;;;;;;5461866;26;20453;-44
2024/04/13 10:20:49;;;;;;;4.27;2.97;;;26.50;1.00;;;;;;5494304;26;20572;-48
2024/04/13 10:23:15;;;;;;;7.20;2.80;;;27.00;1.00;;;;;;5491227;26;20484;-50
2024/04/13 10:25:41;;;;;;;5.20;2.57;;;27.70;1.00;;;;;;5459748;26;20229;-47
2024/04/13 10:28:09;;;;;;;4.40;2.60;;;28.10;1.00;;;;;;5493670;26;20506;-50
2024/04/13 10:30:52;;;;;;;7.40;3.07;;;28.10;1.00;;;;;;5493513;26;20263;-49
2024/04/13 10:33:28;;;;;;;3.10;2.60;;;27.90;1.00;;;;;;5493400;26;20457;-50
2024/04/13 10:35:57;;;;;;;4.10;2.67;;;28.20;1.00;;;;;;5490257;26;20995;-50
2024/04/13 10:38:27;;;;;;;2.97;2.13;;;28.50;1.00;;;;;;5491850;26;20521;-48
2024/04/13 10:40:53;;;;;;;2.40;2.10;;;27.90;1.00;;;;;;5489178;26;20544;-48
2024/04/13 10:43:23;;;;;;;3.50;2.33;;;27.80;1.00;;;;;;5490426;26;20449;-47
2024/04/13 10:45:59;;;;;;;2.27;1.70;;;27.40;1.00;;;;;;5492098;26;20450;-48
2024/04/13 10:48:27;;;;;;;2.90;2.37;;;27.30;1.00;;;;;;5490661;26;20505;-49
2024/04/13 10:50:57;;;;;;;2.07;1.70;;;27.40;1.00;;;;;;5493098;26;20428;-49
2024/04/13 10:53:25;;;;;;;2.03;1.63;;;27.80;1.00;;;;;;5492186;26;20430;-48
2024/04/13 10:55:56;;;;;;;3.63;2.20;;;27.90;1.00;;;;;;5459536;26;20438;-48
2024/04/13 10:58:30;;;;;;;2.83;1.60;;;28.00;1.00;;;;;;5487251;26;20425;-47
2024/04/13 11:00:56;;;;;;;2.97;1.60;;;28.40;1.00;;;;;;5486110;26;20556;-48
2024/04/13 11:03:23;;;;;;;2.77;1.97;;;28.50;1.00;;;;;;5489294;26;20426;-48
2024/04/13 11:05:49;;;;;;;2.40;1.70;;;28.10;1.00;;;;;;5492704;26;20439;-48
2024/04/13 11:08:16;;;;;;;4.67;2.10;;;27.90;1.00;;;;;;5492223;26;20422;-46
2024/04/13 11:10:42;;;;;;;3.50;1.67;;;28.00;1.00;;;;;;5491433;26;20221;-51
2024/04/13 11:13:08;;;;;;;2.63;1.60;;;27.90;1.00;;;;;;5487720;26;20561;-48
2024/04/13 11:15:34;;;;;;;2.33;1.90;;;28.20;1.00;;;;;;5489919;26;20962;-49
2024/04/13 11:17:59;;;;;;;3.30;1.80;;;28.60;1.00;;;;;;5492054;26;20688;-48
2024/04/13 11:20:27;;;;;;;2.47;1.80;;;29.00;1.00;;;;;;5489236;26;20233;-47
2024/04/13 11:22:54;;;;;;;5.00;1.90;;;29.50;1.00;;;;;;5455204;26;20252;-48
2024/04/13 11:25:19;;;;;;;2.17;1.87;;;29.50;1.00;;;;;;5492294;26;20472;-47
2024/04/13 11:27:45;;;;;;;2.90;2.10;;;29.40;1.00;;;;;;5525825;25;20416;-49
2024/04/13 11:30:12;;;;;;;2.23;1.50;;;29.60;1.00;;;;;;5494815;25;20519;-48
2024/04/13 11:32:37;;;;;;;3.10;1.87;;;29.80;1.00;;;;;;5527754;25;20283;-48
2024/04/13 11:35:03;;;;;;;4.40;2.00;;;30.00;1.00;;;;;;5528265;25;20507;-52
2024/04/13 11:37:29;;;;;;;4.90;2.00;;;29.60;1.00;;;;;;5526176;25;20211;-48
2024/04/13 11:39:55;;;;;;;3.57;2.00;;;29.80;1.00;;;;;;5528264;25;20842;-47
2024/04/13 11:42:21;;;;;;;3.03;2.00;;;29.80;1.00;;;;;;5528111;25;20750;-49
2024/04/13 11:44:49;;;;;;;3.67;1.97;;;29.90;1.00;;;;;;5527969;25;20223;-49
2024/04/13 11:47:15;;;;;;;3.20;2.10;;;29.80;1.00;;;;;;5526350;25;20503;-48
2024/04/13 11:49:42;;;;;;;4.00;2.17;;;29.90;1.00;;;;;;5526777;25;20557;-47
2024/04/13 11:52:17;;;;;;;2.10;1.50;;;30.20;1.00;;;;;;5527083;25;20487;-50
2024/04/13 11:54:43;;;;;;;2.43;1.60;;;30.30;1.00;;;;;;5527380;25;20541;-50
2024/04/13 11:57:11;;;;;;;3.63;1.60;;;30.20;1.00;;;;;;5527558;25;20421;-47
2024/04/13 11:59:36;;;;;;;1.90;1.60;;;30.20;1.00;;;;;;5527430;25;20243;-50
2024/04/13 12:02:02;;;;;;;3.27;1.73;;;30.40;1.00;;;;;;5526800;25;20522;-47
2024/04/13 12:04:28;;;;;;;1.83;1.07;;;30.30;1.00;;;;;;5525384;25;20614;-50
2024/04/13 12:06:53;;;;;;;1.90;1.70;;;30.30;1.00;;;;;;5526275;25;20547;-50
2024/04/13 12:09:19;;;;;;;2.20;1.87;;;29.80;1.00;;;;;;5495414;26;20270;-50
2024/04/13 12:11:45;;;;;;;1.70;1.43;;;29.80;1.00;;;;;;5528625;25;20227;-47
2024/04/13 12:14:10;;;;;;;2.60;1.70;;;30.30;1.00;;;;;;5526460;25;20846;-48
2024/04/13 12:16:36;;;;;;;2.87;1.70;;;30.40;1.00;;;;;;5528204;25;20657;-50
2024/04/13 12:19:03;;;;;;;2.70;1.37;;;30.10;1.00;;;;;;5528711;25;20223;-48
2024/04/13 12:21:32;;;;;;;2.37;1.87;;;30.20;1.00;;;;;;5496526;25;20224;-48
2024/04/13 12:23:58;;;;;;;1.93;1.73;;;30.10;1.00;;;;;;5525997;25;20858;-47
2024/04/13 12:26:24;;;;;;;3.53;1.70;;;30.20;1.00;;;;;;5527782;25;20448;-48
2024/04/13 12:28:50;;;;;;;3.17;2.63;;;30.70;1.00;;;;;;5525840;25;20258;-53
2024/04/13 12:31:15;;;;;;;2.43;2.13;;;31.10;1.00;;;;;;5527472;25;20429;-48
2024/04/13 12:33:42;;;;;;;3.30;1.83;;;31.50;1.00;;;;;;5523859;25;20232;-50
2024/04/13 12:36:09;;;;;;;4.33;1.80;;;31.30;1.00;;;;;;5492856;25;20619;-52
2024/04/13 12:38:36;;;;;;;1.70;1.40;;;30.90;1.00;;;;;;5492451;26;20980;-48
2024/04/13 12:41:01;;;;;;;3.50;1.90;;;31.00;1.00;;;;;;5526604;25;20440;-49
2024/04/13 12:43:28;;;;;;;2.47;1.70;;;31.40;1.00;;;;;;5522374;25;20806;-48
2024/04/13 12:45:53;;;;;;;3.07;1.80;;;31.90;1.00;;;;;;5523297;25;20672;-48
2024/04/13 12:48:19;;;;;;;2.33;2.00;;;31.80;1.00;;;;;;5525189;25;20235;-51
2024/04/13 12:50:44;;;;;;;2.80;1.70;;;31.70;1.00;;;;;;5495908;25;20223;-50
2024/04/13 12:53:10;;;;;;;3.10;2.03;;;32.70;1.00;;;;;;5528155;25;20224;-46